sensor_id;sensor_type;location;lat;lon;timestamp;temperature;humidity
17092;DHT22;8661;45.700;4.880;2023-12-28T00:02:09;10.50;97.60
17092;DHT22;8661;45.700;4.880;2023-12-28T00:04:36;10.50;97.70
17092;DHT22;8661;45.700;4.880;2023-12-28T00:07:05;10.40;97.90
17092;DHT22;8661;45.700;4.880;2023-12-28T00:09:32;10.40;98.00
17092;DHT22;8661;45.700;4.880;2023-12-28T00:11:59;10.40;98.10
17092;DHT22;8661;45.700;4.880;2023-12-28T00:14:26;10.40;98.20
17092;DHT22;8661;45.700;4.880;2023-12-28T00:16:53;10.40;98.20
17092;DHT22;8661;45.700;4.880;2023-12-28T00:19:20;10.40;98.30
17092;DHT22;8661;45.700;4.880;2023-12-28T00:21:47;10.40;98.50
17092;DHT22;8661;45.700;4.880;2023-12-28T00:24:16;10.40;98.60
17092;DHT22;8661;45.700;4.880;2023-12-28T00:26:43;10.30;98.80
17092;DHT22;8661;45.700;4.880;2023-12-28T00:29:10;10.30;98.90
17092;DHT22;8661;45.700;4.880;2023-12-28T00:31:37;10.30;99.00
17092;DHT22;8661;45.700;4.880;2023-12-28T00:34:04;10.20;99.10
17092;DHT22;8661;45.700;4.880;2023-12-28T00:36:31;10.20;99.30
17092;DHT22;8661;45.700;4.880;2023-12-28T00:38:58;10.10;99.60
17092;DHT22;8661;45.700;4.880;2023-12-28T00:41:26;10.10;99.70
17092;DHT22;8661;45.700;4.880;2023-12-28T00:43:53;10.10;99.90
17092;DHT22;8661;45.700;4.880;2023-12-28T00:46:21;10.10;99.90
17092;DHT22;8661;45.700;4.880;2023-12-28T00:48:48;10.10;99.90
17092;DHT22;8661;45.700;4.880;2023-12-28T00:51:14;10.10;99.90
17092;DHT22;8661;45.700;4.880;2023-12-28T00:53:41;10.10;99.90
17092;DHT22;8661;45.700;4.880;2023-12-28T00:56:09;10.10;99.90
17092;DHT22;8661;45.700;4.880;2023-12-28T00:58:40;10.10;99.90
17092;DHT22;8661;45.700;4.880;2023-12-28T01:01:09;10.00;99.90
17092;DHT22;8661;45.700;4.880;2023-12-28T01:03:36;10.00;99.90
17092;DHT22;8661;45.700;4.880;2023-12-28T01:06:04;10.00;99.90
17092;DHT22;8661;45.700;4.880;2023-12-28T01:08:31;10.00;99.90
17092;DHT22;8661;45.700;4.880;2023-12-28T01:10:59;9.90;99.90
17092;DHT22;8661;45.700;4.880;2023-12-28T01:13:27;9.90;99.90
17092;DHT22;8661;45.700;4.880;2023-12-28T01:15:55;9.90;99.90
17092;DHT22;8661;45.700;4.880;2023-12-28T01:18:22;9.90;99.90
17092;DHT22;8661;45.700;4.880;2023-12-28T01:20:49;9.80;99.90
17092;DHT22;8661;45.700;4.880;2023-12-28T01:23:16;9.80;99.90
17092;DHT22;8661;45.700;4.880;2023-12-28T01:25:43;9.70;99.90
17092;DHT22;8661;45.700;4.880;2023-12-28T01:28:10;9.70;99.90
17092;DHT22;8661;45.700;4.880;2023-12-28T01:30:37;9.70;99.90
17092;DHT22;8661;45.700;4.880;2023-12-28T01:33:05;9.70;99.90
17092;DHT22;8661;45.700;4.880;2023-12-28T01:35:32;9.70;99.90
17092;DHT22;8661;45.700;4.880;2023-12-28T01:37:59;9.70;99.90
17092;DHT22;8661;45.700;4.880;2023-12-28T01:40:27;9.60;99.90
17092;DHT22;8661;45.700;4.880;2023-12-28T01:42:54;9.60;99.90
17092;DHT22;8661;45.700;4.880;2023-12-28T01:45:21;9.50;99.90
17092;DHT22;8661;45.700;4.880;2023-12-28T01:47:48;9.50;99.90
17092;DHT22;8661;45.700;4.880;2023-12-28T01:50:18;9.50;99.90
17092;DHT22;8661;45.700;4.880;2023-12-28T01:52:46;9.50;99.90
17092;DHT22;8661;45.700;4.880;2023-12-28T01:55:14;9.50;99.90
17092;DHT22;8661;45.700;4.880;2023-12-28T01:57:42;9.50;99.90
17092;DHT22;8661;45.700;4.880;2023-12-28T02:00:09;9.50;99.90
17092;DHT22;8661;45.700;4.880;2023-12-28T02:02:37;9.50;99.90
17092;DHT22;8661;45.700;4.880;2023-12-28T02:05:05;9.60;99.90
17092;DHT22;8661;45.700;4.880;2023-12-28T02:07:36;9.60;99.90
17092;DHT22;8661;45.700;4.880;2023-12-28T02:10:03;9.50;99.90
17092;DHT22;8661;45.700;4.880;2023-12-28T02:12:30;9.50;99.90
17092;DHT22;8661;45.700;4.880;2023-12-28T02:14:58;9.60;99.90
17092;DHT22;8661;45.700;4.880;2023-12-28T02:17:28;9.60;99.90
17092;DHT22;8661;45.700;4.880;2023-12-28T02:19:58;9.50;99.90
17092;DHT22;8661;45.700;4.880;2023-12-28T02:22:26;9.50;99.90
17092;DHT22;8661;45.700;4.880;2023-12-28T02:25:04;9.40;99.90
17092;DHT22;8661;45.700;4.880;2023-12-28T02:27:30;9.30;99.90
17092;DHT22;8661;45.700;4.880;2023-12-28T02:29:57;9.20;99.90
17092;DHT22;8661;45.700;4.880;2023-12-28T02:32:36;9.10;99.90
17092;DHT22;8661;45.700;4.880;2023-12-28T02:35:13;9.00;99.90
17092;DHT22;8661;45.700;4.880;2023-12-28T02:37:43;8.90;99.90
17092;DHT22;8661;45.700;4.880;2023-12-28T02:40:14;8.90;99.90
17092;DHT22;8661;45.700;4.880;2023-12-28T02:42:42;8.90;99.90
17092;DHT22;8661;45.700;4.880;2023-12-28T02:45:09;8.90;99.90
17092;DHT22;8661;45.700;4.880;2023-12-28T02:47:37;8.90;99.90
17092;DHT22;8661;45.700;4.880;2023-12-28T02:50:04;8.80;99.90
17092;DHT22;8661;45.700;4.880;2023-12-28T02:52:32;8.80;99.90
17092;DHT22;8661;45.700;4.880;2023-12-28T02:54:58;8.70;99.90
17092;DHT22;8661;45.700;4.880;2023-12-28T02:57:27;8.60;99.90
17092;DHT22;8661;45.700;4.880;2023-12-28T02:59:54;8.50;99.90
17092;DHT22;8661;45.700;4.880;2023-12-28T03:02:22;8.50;99.90
17092;DHT22;8661;45.700;4.880;2023-12-28T03:04:49;8.50;99.90
17092;DHT22;8661;45.700;4.880;2023-12-28T03:07:16;8.40;99.90
17092;DHT22;8661;45.700;4.880;2023-12-28T03:09:43;8.40;99.90
17092;DHT22;8661;45.700;4.880;2023-12-28T03:12:10;8.40;99.90
17092;DHT22;8661;45.700;4.880;2023-12-28T03:14:38;8.40;99.90
17092;DHT22;8661;45.700;4.880;2023-12-28T03:17:05;8.40;99.90
17092;DHT22;8661;45.700;4.880;2023-12-28T03:19:32;8.40;99.90
17092;DHT22;8661;45.700;4.880;2023-12-28T03:21:59;8.40;99.90
17092;DHT22;8661;45.700;4.880;2023-12-28T03:24:26;8.40;99.90
17092;DHT22;8661;45.700;4.880;2023-12-28T03:26:53;8.40;99.90
17092;DHT22;8661;45.700;4.880;2023-12-28T03:29:20;8.40;99.90
17092;DHT22;8661;45.700;4.880;2023-12-28T03:31:48;8.40;99.90
17092;DHT22;8661;45.700;4.880;2023-12-28T03:34:15;8.40;99.90
17092;DHT22;8661;45.700;4.880;2023-12-28T03:36:43;8.40;99.90
17092;DHT22;8661;45.700;4.880;2023-12-28T03:39:10;8.40;99.90
17092;DHT22;8661;45.700;4.880;2023-12-28T03:41:37;8.40;99.90
17092;DHT22;8661;45.700;4.880;2023-12-28T03:44:04;8.40;99.90
17092;DHT22;8661;45.700;4.880;2023-12-28T03:46:31;8.40;99.90
17092;DHT22;8661;45.700;4.880;2023-12-28T03:48:59;8.40;99.90
17092;DHT22;8661;45.700;4.880;2023-12-28T03:51:26;8.30;99.90
17092;DHT22;8661;45.700;4.880;2023-12-28T03:53:53;8.30;99.90
17092;DHT22;8661;45.700;4.880;2023-12-28T03:56:24;8.30;99.90
17092;DHT22;8661;45.700;4.880;2023-12-28T03:58:51;8.20;99.90
17092;DHT22;8661;45.700;4.880;2023-12-28T04:01:19;8.10;99.90
17092;DHT22;8661;45.700;4.880;2023-12-28T04:03:47;8.00;99.90
17092;DHT22;8661;45.700;4.880;2023-12-28T04:06:15;8.00;99.90
17092;DHT22;8661;45.700;4.880;2023-12-28T04:08:42;7.90;99.90
17092;DHT22;8661;45.700;4.880;2023-12-28T04:11:10;8.00;99.90
17092;DHT22;8661;45.700;4.880;2023-12-28T04:13:37;8.00;99.90
17092;DHT22;8661;45.700;4.880;2023-12-28T04:16:05;7.90;99.90
17092;DHT22;8661;45.700;4.880;2023-12-28T04:18:32;7.90;99.90
17092;DHT22;8661;45.700;4.880;2023-12-28T04:20:59;7.90;99.90
17092;DHT22;8661;45.700;4.880;2023-12-28T04:23:27;7.80;99.90
17092;DHT22;8661;45.700;4.880;2023-12-28T04:25:54;7.80;99.90
17092;DHT22;8661;45.700;4.880;2023-12-28T04:28:21;7.90;99.90
17092;DHT22;8661;45.700;4.880;2023-12-28T04:30:48;8.00;99.90
17092;DHT22;8661;45.700;4.880;2023-12-28T04:33:17;8.00;99.90
17092;DHT22;8661;45.700;4.880;2023-12-28T04:35:44;8.20;99.90
17092;DHT22;8661;45.700;4.880;2023-12-28T04:38:12;8.20;99.90
17092;DHT22;8661;45.700;4.880;2023-12-28T04:40:41;8.20;99.90
17092;DHT22;8661;45.700;4.880;2023-12-28T04:43:08;8.10;99.90
17092;DHT22;8661;45.700;4.880;2023-12-28T04:45:35;8.20;99.90
17092;DHT22;8661;45.700;4.880;2023-12-28T04:48:02;8.20;99.90
17092;DHT22;8661;45.700;4.880;2023-12-28T04:50:29;8.20;99.90
17092;DHT22;8661;45.700;4.880;2023-12-28T04:52:56;8.10;99.90
17092;DHT22;8661;45.700;4.880;2023-12-28T04:55:23;8.00;99.90
17092;DHT22;8661;45.700;4.880;2023-12-28T04:57:52;8.10;99.90
17092;DHT22;8661;45.700;4.880;2023-12-28T05:00:19;8.10;99.90
17092;DHT22;8661;45.700;4.880;2023-12-28T05:02:46;8.10;99.90
17092;DHT22;8661;45.700;4.880;2023-12-28T05:05:13;8.10;99.90
17092;DHT22;8661;45.700;4.880;2023-12-28T05:07:40;8.10;99.90
17092;DHT22;8661;45.700;4.880;2023-12-28T05:10:09;8.20;99.90
17092;DHT22;8661;45.700;4.880;2023-12-28T05:12:36;8.10;99.90
17092;DHT22;8661;45.700;4.880;2023-12-28T05:15:05;8.10;99.90
17092;DHT22;8661;45.700;4.880;2023-12-28T05:17:32;8.10;99.90
17092;DHT22;8661;45.700;4.880;2023-12-28T05:19:59;8.00;99.90
17092;DHT22;8661;45.700;4.880;2023-12-28T05:22:26;8.00;99.90
17092;DHT22;8661;45.700;4.880;2023-12-28T05:24:53;8.00;99.90
17092;DHT22;8661;45.700;4.880;2023-12-28T05:27:20;8.00;99.90
17092;DHT22;8661;45.700;4.880;2023-12-28T05:29:46;7.90;99.90
17092;DHT22;8661;45.700;4.880;2023-12-28T05:32:15;7.90;99.90
17092;DHT22;8661;45.700;4.880;2023-12-28T05:34:42;7.90;99.90
17092;DHT22;8661;45.700;4.880;2023-12-28T05:37:09;8.00;99.90
17092;DHT22;8661;45.700;4.880;2023-12-28T05:39:36;8.00;99.90
17092;DHT22;8661;45.700;4.880;2023-12-28T05:42:03;8.00;99.90
17092;DHT22;8661;45.700;4.880;2023-12-28T05:44:30;7.90;99.90
17092;DHT22;8661;45.700;4.880;2023-12-28T05:46:57;7.90;99.90
17092;DHT22;8661;45.700;4.880;2023-12-28T05:49:25;7.90;99.90
17092;DHT22;8661;45.700;4.880;2023-12-28T05:51:54;7.90;99.90
17092;DHT22;8661;45.700;4.880;2023-12-28T05:54:21;7.80;99.90
17092;DHT22;8661;45.700;4.880;2023-12-28T05:56:48;7.90;99.90
17092;DHT22;8661;45.700;4.880;2023-12-28T05:59:15;7.80;99.90
17092;DHT22;8661;45.700;4.880;2023-12-28T06:01:42;7.90;99.90
17092;DHT22;8661;45.700;4.880;2023-12-28T06:04:10;7.90;99.90
17092;DHT22;8661;45.700;4.880;2023-12-28T06:06:38;7.90;99.90
17092;DHT22;8661;45.700;4.880;2023-12-28T06:09:05;7.90;99.90
17092;DHT22;8661;45.700;4.880;2023-12-28T06:11:33;7.80;99.90
17092;DHT22;8661;45.700;4.880;2023-12-28T06:14:00;7.80;99.90
17092;DHT22;8661;45.700;4.880;2023-12-28T06:16:27;7.70;99.90
17092;DHT22;8661;45.700;4.880;2023-12-28T06:18:58;7.60;99.90
17092;DHT22;8661;45.700;4.880;2023-12-28T06:21:25;7.50;99.90
17092;DHT22;8661;45.700;4.880;2023-12-28T06:23:53;7.40;99.90
17092;DHT22;8661;45.700;4.880;2023-12-28T06:26:20;7.40;99.90
17092;DHT22;8661;45.700;4.880;2023-12-28T06:28:47;7.30;99.90
17092;DHT22;8661;45.700;4.880;2023-12-28T06:31:14;7.30;99.90
17092;DHT22;8661;45.700;4.880;2023-12-28T06:33:41;7.30;99.90
17092;DHT22;8661;45.700;4.880;2023-12-28T06:36:10;7.30;99.90
17092;DHT22;8661;45.700;4.880;2023-12-28T06:38:37;7.30;99.90
17092;DHT22;8661;45.700;4.880;2023-12-28T06:41:11;7.40;99.90
17092;DHT22;8661;45.700;4.880;2023-12-28T06:43:38;7.50;99.90
17092;DHT22;8661;45.700;4.880;2023-12-28T06:46:05;7.60;99.90
17092;DHT22;8661;45.700;4.880;2023-12-28T06:48:32;7.60;99.90
17092;DHT22;8661;45.700;4.880;2023-12-28T06:50:59;7.60;99.90
17092;DHT22;8661;45.700;4.880;2023-12-28T06:53:26;7.50;99.90
17092;DHT22;8661;45.700;4.880;2023-12-28T06:55:56;7.50;99.90
17092;DHT22;8661;45.700;4.880;2023-12-28T06:58:24;7.60;99.90
17092;DHT22;8661;45.700;4.880;2023-12-28T07:00:51;7.60;99.90
17092;DHT22;8661;45.700;4.880;2023-12-28T07:03:18;7.60;99.90
17092;DHT22;8661;45.700;4.880;2023-12-28T07:05:45;7.60;99.90
17092;DHT22;8661;45.700;4.880;2023-12-28T07:08:12;7.60;99.90
17092;DHT22;8661;45.700;4.880;2023-12-28T07:10:39;7.70;99.90
17092;DHT22;8661;45.700;4.880;2023-12-28T07:13:06;7.80;99.90
17092;DHT22;8661;45.700;4.880;2023-12-28T07:15:35;7.80;99.90
17092;DHT22;8661;45.700;4.880;2023-12-28T07:18:02;7.90;99.90
17092;DHT22;8661;45.700;4.880;2023-12-28T07:20:29;8.00;99.90
17092;DHT22;8661;45.700;4.880;2023-12-28T07:22:56;8.00;99.90
17092;DHT22;8661;45.700;4.880;2023-12-28T07:25:23;8.00;99.90
17092;DHT22;8661;45.700;4.880;2023-12-28T07:27:50;8.10;99.90
17092;DHT22;8661;45.700;4.880;2023-12-28T07:30:17;8.10;99.90
17092;DHT22;8661;45.700;4.880;2023-12-28T07:32:46;8.20;99.90
17092;DHT22;8661;45.700;4.880;2023-12-28T07:35:13;8.20;99.90
17092;DHT22;8661;45.700;4.880;2023-12-28T07:37:40;8.30;99.90
17092;DHT22;8661;45.700;4.880;2023-12-28T07:40:07;8.30;99.90
17092;DHT22;8661;45.700;4.880;2023-12-28T07:42:34;8.40;99.90
17092;DHT22;8661;45.700;4.880;2023-12-28T07:45:01;8.50;99.90
17092;DHT22;8661;45.700;4.880;2023-12-28T07:47:28;8.50;99.90
17092;DHT22;8661;45.700;4.880;2023-12-28T07:49:57;8.60;99.90
17092;DHT22;8661;45.700;4.880;2023-12-28T07:52:24;8.70;99.90
17092;DHT22;8661;45.700;4.880;2023-12-28T07:54:50;8.70;99.90
17092;DHT22;8661;45.700;4.880;2023-12-28T07:57:18;8.70;99.90
17092;DHT22;8661;45.700;4.880;2023-12-28T07:59:45;8.80;99.90
17092;DHT22;8661;45.700;4.880;2023-12-28T08:02:11;8.80;99.90
17092;DHT22;8661;45.700;4.880;2023-12-28T08:04:38;8.90;99.90
17092;DHT22;8661;45.700;4.880;2023-12-28T08:07:07;9.00;99.90
17092;DHT22;8661;45.700;4.880;2023-12-28T08:09:34;9.00;99.90
17092;DHT22;8661;45.700;4.880;2023-12-28T08:12:01;9.00;99.90
17092;DHT22;8661;45.700;4.880;2023-12-28T08:14:29;9.10;99.90
17092;DHT22;8661;45.700;4.880;2023-12-28T08:16:56;9.10;99.90
17092;DHT22;8661;45.700;4.880;2023-12-28T08:19:23;9.20;99.90
17092;DHT22;8661;45.700;4.880;2023-12-28T08:21:49;9.20;99.90
17092;DHT22;8661;45.700;4.880;2023-12-28T08:24:18;9.20;99.90
17092;DHT22;8661;45.700;4.880;2023-12-28T08:26:45;9.30;99.90
17092;DHT22;8661;45.700;4.880;2023-12-28T08:29:12;9.30;99.90
17092;DHT22;8661;45.700;4.880;2023-12-28T08:31:38;9.30;99.90
17092;DHT22;8661;45.700;4.880;2023-12-28T08:34:06;9.30;99.90
17092;DHT22;8661;45.700;4.880;2023-12-28T08:36:33;9.40;99.90
17092;DHT22;8661;45.700;4.880;2023-12-28T08:39:00;9.40;99.90
17092;DHT22;8661;45.700;4.880;2023-12-28T08:41:28;9.40;99.90
17092;DHT22;8661;45.700;4.880;2023-12-28T08:43:55;9.50;99.90
17092;DHT22;8661;45.700;4.880;2023-12-28T08:46:22;9.40;99.90
17092;DHT22;8661;45.700;4.880;2023-12-28T08:48:50;9.50;99.90
17092;DHT22;8661;45.700;4.880;2023-12-28T08:51:17;9.60;99.90
17092;DHT22;8661;45.700;4.880;2023-12-28T08:53:44;9.60;99.90
17092;DHT22;8661;45.700;4.880;2023-12-28T08:56:16;9.70;99.90
17092;DHT22;8661;45.700;4.880;2023-12-28T08:58:45;9.80;99.90
17092;DHT22;8661;45.700;4.880;2023-12-28T09:01:16;9.90;99.90
17092;DHT22;8661;45.700;4.880;2023-12-28T09:03:44;10.10;99.90
17092;DHT22;8661;45.700;4.880;2023-12-28T09:06:11;10.20;99.90
17092;DHT22;8661;45.700;4.880;2023-12-28T09:08:41;10.40;99.90
17092;DHT22;8661;45.700;4.880;2023-12-28T09:11:09;10.60;99.90
17092;DHT22;8661;45.700;4.880;2023-12-28T09:13:36;10.80;99.90
17092;DHT22;8661;45.700;4.880;2023-12-28T09:16:05;11.10;99.90
17092;DHT22;8661;45.700;4.880;2023-12-28T09:18:32;11.50;99.90
17092;DHT22;8661;45.700;4.880;2023-12-28T09:20:59;12.00;99.90
17092;DHT22;8661;45.700;4.880;2023-12-28T09:23:26;12.50;99.90
17092;DHT22;8661;45.700;4.880;2023-12-28T09:25:53;13.20;99.90
17092;DHT22;8661;45.700;4.880;2023-12-28T09:28:20;13.90;99.90
17092;DHT22;8661;45.700;4.880;2023-12-28T09:30:47;14.40;99.90
17092;DHT22;8661;45.700;4.880;2023-12-28T09:33:15;14.60;99.90
17092;DHT22;8661;45.700;4.880;2023-12-28T09:35:42;14.80;99.90
17092;DHT22;8661;45.700;4.880;2023-12-28T09:38:09;14.30;99.90
17092;DHT22;8661;45.700;4.880;2023-12-28T09:40:36;14.10;99.90
17092;DHT22;8661;45.700;4.880;2023-12-28T09:43:13;14.50;99.90
17092;DHT22;8661;45.700;4.880;2023-12-28T09:45:40;15.80;99.90
17092;DHT22;8661;45.700;4.880;2023-12-28T09:48:07;18.10;99.90
17092;DHT22;8661;45.700;4.880;2023-12-28T09:50:36;20.50;96.40
17092;DHT22;8661;45.700;4.880;2023-12-28T09:53:03;22.20;91.90
17092;DHT22;8661;45.700;4.880;2023-12-28T09:55:30;23.40;86.40
17092;DHT22;8661;45.700;4.880;2023-12-28T09:57:58;24.20;80.40
17092;DHT22;8661;45.700;4.880;2023-12-28T10:00:26;26.00;75.20
17092;DHT22;8661;45.700;4.880;2023-12-28T10:02:53;27.40;70.20
17092;DHT22;8661;45.700;4.880;2023-12-28T10:05:20;27.90;66.80
17092;DHT22;8661;45.700;4.880;2023-12-28T10:07:50;27.40;65.40
17092;DHT22;8661;45.700;4.880;2023-12-28T10:10:17;26.70;65.90
17092;DHT22;8661;45.700;4.880;2023-12-28T10:12:46;27.10;66.30
17092;DHT22;8661;45.700;4.880;2023-12-28T10:15:13;28.20;64.70
17092;DHT22;8661;45.700;4.880;2023-12-28T10:17:40;28.10;64.10
17092;DHT22;8661;45.700;4.880;2023-12-28T10:20:07;28.40;64.10
17092;DHT22;8661;45.700;4.880;2023-12-28T10:22:35;29.00;63.00
17092;DHT22;8661;45.700;4.880;2023-12-28T10:25:05;28.60;61.50
17092;DHT22;8661;45.700;4.880;2023-12-28T10:27:32;27.00;64.30
17092;DHT22;8661;45.700;4.880;2023-12-28T10:30:00;25.20;66.00
17092;DHT22;8661;45.700;4.880;2023-12-28T10:32:26;23.40;70.90
17092;DHT22;8661;45.700;4.880;2023-12-28T10:34:53;21.60;75.40
17092;DHT22;8661;45.700;4.880;2023-12-28T10:37:21;20.30;78.50
17092;DHT22;8661;45.700;4.880;2023-12-28T10:39:48;19.10;82.10
17092;DHT22;8661;45.700;4.880;2023-12-28T10:42:26;18.40;85.00
17092;DHT22;8661;45.700;4.880;2023-12-28T10:45:01;17.80;86.30
17092;DHT22;8661;45.700;4.880;2023-12-28T10:47:28;17.40;87.80
17092;DHT22;8661;45.700;4.880;2023-12-28T10:50:00;16.80;90.00
17092;DHT22;8661;45.700;4.880;2023-12-28T10:52:31;16.60;90.70
17092;DHT22;8661;45.700;4.880;2023-12-28T10:55:21;16.40;91.10
17092;DHT22;8661;45.700;4.880;2023-12-28T10:57:59;16.40;91.30
17092;DHT22;8661;45.700;4.880;2023-12-28T11:00:31;16.20;91.60
17092;DHT22;8661;45.700;4.880;2023-12-28T11:03:03;16.00;92.10
17092;DHT22;8661;45.700;4.880;2023-12-28T11:05:33;15.80;92.50
17092;DHT22;8661;45.700;4.880;2023-12-28T11:08:02;15.50;93.10
17092;DHT22;8661;45.700;4.880;2023-12-28T11:10:31;15.30;93.70
17092;DHT22;8661;45.700;4.880;2023-12-28T11:13:01;15.30;94.00
17092;DHT22;8661;45.700;4.880;2023-12-28T11:15:30;15.30;94.20
17092;DHT22;8661;45.700;4.880;2023-12-28T11:17:57;15.50;94.20
17092;DHT22;8661;45.700;4.880;2023-12-28T11:20:24;15.70;94.20
17092;DHT22;8661;45.700;4.880;2023-12-28T11:22:56;15.80;94.10
17092;DHT22;8661;45.700;4.880;2023-12-28T11:25:24;16.00;94.10
17092;DHT22;8661;45.700;4.880;2023-12-28T11:27:57;16.20;93.80
17092;DHT22;8661;45.700;4.880;2023-12-28T11:30:27;16.40;93.40
17092;DHT22;8661;45.700;4.880;2023-12-28T11:32:56;16.40;93.50
17092;DHT22;8661;45.700;4.880;2023-12-28T11:35:23;16.60;93.40
17092;DHT22;8661;45.700;4.880;2023-12-28T11:37:52;16.80;93.10
17092;DHT22;8661;45.700;4.880;2023-12-28T11:40:21;16.90;93.00
17092;DHT22;8661;45.700;4.880;2023-12-28T11:42:49;17.10;92.70
17092;DHT22;8661;45.700;4.880;2023-12-28T11:45:17;16.90;92.40
17092;DHT22;8661;45.700;4.880;2023-12-28T11:47:46;16.90;92.70
17092;DHT22;8661;45.700;4.880;2023-12-28T11:50:13;17.00;92.50
17092;DHT22;8661;45.700;4.880;2023-12-28T11:52:40;17.00;92.50
17092;DHT22;8661;45.700;4.880;2023-12-28T11:55:07;16.90;92.60
17092;DHT22;8661;45.700;4.880;2023-12-28T11:57:36;16.80;93.10
17092;DHT22;8661;45.700;4.880;2023-12-28T12:00:05;16.70;93.20
17092;DHT22;8661;45.700;4.880;2023-12-28T12:02:33;16.70;93.30
17092;DHT22;8661;45.700;4.880;2023-12-28T12:05:01;16.60;93.50
17092;DHT22;8661;45.700;4.880;2023-12-28T12:07:29;16.10;94.20
17092;DHT22;8661;45.700;4.880;2023-12-28T12:09:56;15.70;94.80
17092;DHT22;8661;45.700;4.880;2023-12-28T12:12:24;15.40;95.50
17092;DHT22;8661;45.700;4.880;2023-12-28T12:14:51;15.10;96.20
17092;DHT22;8661;45.700;4.880;2023-12-28T12:17:18;14.90;96.90
17092;DHT22;8661;45.700;4.880;2023-12-28T12:19:48;14.50;97.40
17092;DHT22;8661;45.700;4.880;2023-12-28T12:22:18;14.30;98.00
17092;DHT22;8661;45.700;4.880;2023-12-28T12:24:47;14.10;98.50
17092;DHT22;8661;45.700;4.880;2023-12-28T12:27:15;13.90;98.90
17092;DHT22;8661;45.700;4.880;2023-12-28T12:29:42;13.80;99.40
17092;DHT22;8661;45.700;4.880;2023-12-28T12:32:10;13.70;99.80
17092;DHT22;8661;45.700;4.880;2023-12-28T12:34:38;13.60;99.90
17092;DHT22;8661;45.700;4.880;2023-12-28T12:37:07;13.50;99.90
17092;DHT22;8661;45.700;4.880;2023-12-28T12:39:36;13.50;99.90
17092;DHT22;8661;45.700;4.880;2023-12-28T12:42:03;13.40;99.90
17092;DHT22;8661;45.700;4.880;2023-12-28T12:44:30;13.30;99.90
17092;DHT22;8661;45.700;4.880;2023-12-28T12:46:57;13.30;99.90
17092;DHT22;8661;45.700;4.880;2023-12-28T12:49:25;13.30;99.90
17092;DHT22;8661;45.700;4.880;2023-12-28T12:51:53;13.20;99.90
17092;DHT22;8661;45.700;4.880;2023-12-28T12:54:20;13.20;99.90
17092;DHT22;8661;45.700;4.880;2023-12-28T12:56:50;13.20;99.90
17092;DHT22;8661;45.700;4.880;2023-12-28T12:59:18;13.20;99.90
17092;DHT22;8661;45.700;4.880;2023-12-28T13:01:45;13.10;99.90
17092;DHT22;8661;45.700;4.880;2023-12-28T13:04:14;13.10;99.90
17092;DHT22;8661;45.700;4.880;2023-12-28T13:06:42;13.00;99.90
17092;DHT22;8661;45.700;4.880;2023-12-28T13:09:09;13.00;99.90
17092;DHT22;8661;45.700;4.880;2023-12-28T13:11:37;13.00;99.90
17092;DHT22;8661;45.700;4.880;2023-12-28T13:14:05;12.90;99.90
17092;DHT22;8661;45.700;4.880;2023-12-28T13:16:32;13.00;99.90
17092;DHT22;8661;45.700;4.880;2023-12-28T13:18:59;13.00;99.90
17092;DHT22;8661;45.700;4.880;2023-12-28T13:21:26;13.00;99.90
17092;DHT22;8661;45.700;4.880;2023-12-28T13:23:55;13.00;99.90
17092;DHT22;8661;45.700;4.880;2023-12-28T13:26:25;13.00;99.90
17092;DHT22;8661;45.700;4.880;2023-12-28T13:28:51;13.00;99.90
17092;DHT22;8661;45.700;4.880;2023-12-28T13:31:20;13.10;99.90
17092;DHT22;8661;45.700;4.880;2023-12-28T13:33:47;13.00;99.90
17092;DHT22;8661;45.700;4.880;2023-12-28T13:36:14;13.10;99.90
17092;DHT22;8661;45.700;4.880;2023-12-28T13:38:41;13.10;99.90
17092;DHT22;8661;45.700;4.880;2023-12-28T13:41:08;13.10;99.90
17092;DHT22;8661;45.700;4.880;2023-12-28T13:43:35;13.10;99.90
17092;DHT22;8661;45.700;4.880;2023-12-28T13:46:02;13.10;99.90
17092;DHT22;8661;45.700;4.880;2023-12-28T13:48:31;13.10;99.90
17092;DHT22;8661;45.700;4.880;2023-12-28T13:50:57;13.10;99.90
17092;DHT22;8661;45.700;4.880;2023-12-28T13:53:24;13.10;99.90
17092;DHT22;8661;45.700;4.880;2023-12-28T13:55:51;13.10;99.90
17092;DHT22;8661;45.700;4.880;2023-12-28T13:58:18;13.10;99.90
17092;DHT22;8661;45.700;4.880;2023-12-28T14:00:45;13.00;99.90
17092;DHT22;8661;45.700;4.880;2023-12-28T14:03:12;13.10;99.90
17092;DHT22;8661;45.700;4.880;2023-12-28T14:05:41;13.00;99.90
17092;DHT22;8661;45.700;4.880;2023-12-28T14:08:09;13.00;99.90
17092;DHT22;8661;45.700;4.880;2023-12-28T14:10:36;13.00;99.90
17092;DHT22;8661;45.700;4.880;2023-12-28T14:13:04;12.90;99.90
17092;DHT22;8661;45.700;4.880;2023-12-28T14:15:31;12.90;99.90
17092;DHT22;8661;45.700;4.880;2023-12-28T14:17:58;12.90;99.90
17092;DHT22;8661;45.700;4.880;2023-12-28T14:20:25;12.90;99.90
17092;DHT22;8661;45.700;4.880;2023-12-28T14:22:55;12.90;99.90
17092;DHT22;8661;45.700;4.880;2023-12-28T14:25:22;12.80;99.90
17092;DHT22;8661;45.700;4.880;2023-12-28T14:27:50;12.80;99.90
17092;DHT22;8661;45.700;4.880;2023-12-28T14:30:18;12.90;99.90
17092;DHT22;8661;45.700;4.880;2023-12-28T14:32:46;12.80;99.90
17092;DHT22;8661;45.700;4.880;2023-12-28T14:35:14;12.80;99.90
17092;DHT22;8661;45.700;4.880;2023-12-28T14:37:42;12.80;99.90
17092;DHT22;8661;45.700;4.880;2023-12-28T14:40:11;12.80;99.90
17092;DHT22;8661;45.700;4.880;2023-12-28T14:42:38;12.80;99.90
17092;DHT22;8661;45.700;4.880;2023-12-28T14:45:06;12.70;99.90
17092;DHT22;8661;45.700;4.880;2023-12-28T14:47:33;12.70;99.90
17092;DHT22;8661;45.700;4.880;2023-12-28T14:50:01;12.80;99.90
17092;DHT22;8661;45.700;4.880;2023-12-28T14:52:31;12.80;99.90
17092;DHT22;8661;45.700;4.880;2023-12-28T14:54:58;12.80;99.90
17092;DHT22;8661;45.700;4.880;2023-12-28T14:57:26;12.70;99.90
17092;DHT22;8661;45.700;4.880;2023-12-28T14:59:53;12.70;99.90
17092;DHT22;8661;45.700;4.880;2023-12-28T15:02:20;12.70;99.90
17092;DHT22;8661;45.700;4.880;2023-12-28T15:04:47;12.70;99.90
17092;DHT22;8661;45.700;4.880;2023-12-28T15:07:14;12.60;99.90
17092;DHT22;8661;45.700;4.880;2023-12-28T15:09:40;12.60;99.90
17092;DHT22;8661;45.700;4.880;2023-12-28T15:12:08;12.60;99.90
17092;DHT22;8661;45.700;4.880;2023-12-28T15:14:37;12.60;99.90
17092;DHT22;8661;45.700;4.880;2023-12-28T15:17:05;12.60;99.90
17092;DHT22;8661;45.700;4.880;2023-12-28T15:19:32;12.50;99.90
17092;DHT22;8661;45.700;4.880;2023-12-28T15:22:00;12.50;99.90
17092;DHT22;8661;45.700;4.880;2023-12-28T15:24:27;12.50;99.90
17092;DHT22;8661;45.700;4.880;2023-12-28T15:26:54;12.50;99.90
17092;DHT22;8661;45.700;4.880;2023-12-28T15:29:21;12.50;99.90
17092;DHT22;8661;45.700;4.880;2023-12-28T15:31:49;12.50;99.90
17092;DHT22;8661;45.700;4.880;2023-12-28T15:34:16;12.50;99.90
17092;DHT22;8661;45.700;4.880;2023-12-28T15:36:43;12.50;99.90
17092;DHT22;8661;45.700;4.880;2023-12-28T15:39:10;12.50;99.90
17092;DHT22;8661;45.700;4.880;2023-12-28T15:41:37;12.50;99.90
17092;DHT22;8661;45.700;4.880;2023-12-28T15:44:04;12.50;99.90
17092;DHT22;8661;45.700;4.880;2023-12-28T15:46:31;12.50;99.90
17092;DHT22;8661;45.700;4.880;2023-12-28T15:48:59;12.40;99.90
17092;DHT22;8661;45.700;4.880;2023-12-28T15:51:26;12.40;99.90
17092;DHT22;8661;45.700;4.880;2023-12-28T15:53:53;12.50;99.90
17092;DHT22;8661;45.700;4.880;2023-12-28T15:56:20;12.40;99.90
17092;DHT22;8661;45.700;4.880;2023-12-28T15:58:47;12.40;99.90